Time;durP1;ratioP1;P1;durP2;ratioP2;P2;SDS_P1;SDS_P2;PMS_P1;PMS_P2;Temp;Humidity;BMP_temperature;BMP_pressure;BME280_temperature;BME280_humidity;BME280_pressure;Samples;Min_cycle;Max_cycle;Signal;HPM_P1;HPM_P2
2021/09/05 00:00:42;;;;;;;11.60;6.95;;;15.10;96.20;;;;;;5061441;28;20167;-70
2021/09/05 00:03:08;;;;;;;11.55;6.63;;;15.10;96.10;;;;;;5059736;28;20060;-70
2021/09/05 00:05:33;;;;;;;10.77;6.45;;;15.10;96.30;;;;;;5060378;28;20040;-69
2021/09/05 00:07:59;;;;;;;9.00;6.07;;;15.10;96.20;;;;;;5061809;28;20486;-70
2021/09/05 00:10:25;;;;;;;11.90;6.68;;;15.10;96.20;;;;;;5059008;28;20025;-70
2021/09/05 00:12:51;;;;;;;11.90;6.75;;;15.10;96.20;;;;;;5061809;28;20463;-70
2021/09/05 00:15:17;;;;;;;11.32;6.30;;;15.00;96.20;;;;;;5059245;28;20398;-70
2021/09/05 00:17:43;;;;;;;10.30;6.07;;;14.90;96.20;;;;;;5062857;28;20044;-70
2021/09/05 00:20:09;;;;;;;12.75;7.10;;;15.00;96.30;;;;;;5060490;28;20028;-69
2021/09/05 00:22:35;;;;;;;11.00;6.25;;;14.90;96.30;;;;;;5068155;28;20588;-70
2021/09/05 00:25:02;;;;;;;11.02;6.13;;;14.90;96.30;;;;;;5062068;28;20044;-70
2021/09/05 00:27:28;;;;;;;11.63;6.25;;;14.90;96.30;;;;;;5060420;28;20094;-70
2021/09/05 00:29:53;;;;;;;12.85;7.20;;;14.90;96.30;;;;;;5062313;28;20486;-70
2021/09/05 00:32:19;;;;;;;10.63;6.28;;;14.90;96.30;;;;;;5060507;28;20064;-70
2021/09/05 00:34:45;;;;;;;10.43;6.05;;;14.80;96.30;;;;;;5061577;28;20025;-70
2021/09/05 00:37:10;;;;;;;12.93;6.32;;;14.80;96.40;;;;;;5061639;28;20017;-70
2021/09/05 00:39:36;;;;;;;9.02;5.65;;;14.80;96.40;;;;;;5061018;28;20083;-70
2021/09/05 00:42:02;;;;;;;11.38;6.25;;;14.80;96.40;;;;;;5060863;28;20035;-70
2021/09/05 00:44:28;;;;;;;10.90;5.93;;;14.70;96.20;;;;;;5059403;28;20028;-69
2021/09/05 00:46:53;;;;;;;11.13;6.43;;;14.70;96.50;;;;;;5062644;28;20551;-70
2021/09/05 00:49:19;;;;;;;11.77;6.28;;;14.70;96.70;;;;;;5062543;28;20075;-71
2021/09/05 00:51:45;;;;;;;10.93;6.15;;;14.70;96.40;;;;;;5061048;28;20028;-70
2021/09/05 00:54:14;;;;;;;9.30;5.57;;;14.70;96.30;;;;;;5061011;28;20043;-70
2021/09/05 00:56:44;;;;;;;9.30;5.78;;;14.70;96.40;;;;;;5059455;28;20040;-70
2021/09/05 00:59:18;;;;;;;12.18;5.97;;;14.70;96.40;;;;;;5058002;28;20035;-73
2021/09/05 01:01:43;;;;;;;10.05;6.05;;;14.70;96.40;;;;;;5059660;28;20032;-70
2021/09/05 01:04:09;;;;;;;11.90;6.43;;;14.70;96.20;;;;;;5060627;28;20029;-69
2021/09/05 01:06:37;;;;;;;8.10;5.00;;;14.60;96.30;;;;;;5060583;28;20076;-70
2021/09/05 01:09:04;;;;;;;10.20;6.15;;;14.60;96.50;;;;;;5058341;28;20490;-69
2021/09/05 01:11:33;;;;;;;9.88;5.60;;;14.60;96.40;;;;;;5063817;28;20037;-70
2021/09/05 01:14:01;;;;;;;8.93;5.53;;;14.60;96.50;;;;;;5060898;28;20035;-70
2021/09/05 01:16:30;;;;;;;8.38;5.00;;;14.50;96.60;;;;;;5057796;28;20032;-70
2021/09/05 01:19:11;;;;;;;8.90;5.20;;;14.50;96.60;;;;;;5058467;28;20039;-70
2021/09/05 01:21:37;;;;;;;9.77;5.30;;;14.50;96.50;;;;;;5061970;28;20075;-70
2021/09/05 01:24:05;;;;;;;10.68;5.32;;;14.50;96.60;;;;;;5060410;28;20042;-70
2021/09/05 01:26:32;;;;;;;9.52;5.60;;;14.50;96.50;;;;;;5062482;28;20113;-70
2021/09/05 01:28:58;;;;;;;8.52;4.75;;;14.50;96.40;;;;;;5059566;28;20165;-71
2021/09/05 01:31:25;;;;;;;10.35;5.70;;;14.50;96.50;;;;;;5060754;28;20046;-70
2021/09/05 01:33:52;;;;;;;8.88;5.55;;;14.40;96.50;;;;;;5074157;28;20028;-70
2021/09/05 01:36:18;;;;;;;11.23;5.57;;;14.40;96.60;;;;;;5061482;28;20033;-70
2021/09/05 01:38:44;;;;;;;10.15;5.32;;;14.40;96.60;;;;;;5068206;28;20021;-70
2021/09/05 01:41:10;;;;;;;7.47;4.80;;;14.40;96.60;;;;;;5062420;28;20017;-71
2021/09/05 01:43:36;;;;;;;10.60;4.82;;;14.40;96.50;;;;;;5061891;28;20071;-70
2021/09/05 01:46:02;;;;;;;9.05;5.30;;;14.40;96.50;;;;;;5059446;28;20029;-71
2021/09/05 01:48:28;;;;;;;10.68;5.35;;;14.40;96.50;;;;;;5060151;28;20483;-70
2021/09/05 01:50:54;;;;;;;11.00;5.13;;;14.40;96.50;;;;;;5058656;28;20032;-71
2021/09/05 01:53:20;;;;;;;9.82;4.97;;;14.30;96.50;;;;;;5082212;28;20486;-71
2021/09/05 01:55:45;;;;;;;10.45;5.25;;;14.30;96.40;;;;;;5077194;28;20029;-71
2021/09/05 01:58:11;;;;;;;11.75;4.90;;;14.30;96.50;;;;;;5060605;28;20056;-72
2021/09/05 02:00:37;;;;;;;10.63;5.50;;;14.30;96.50;;;;;;5060062;28;20025;-71
2021/09/05 02:03:03;;;;;;;8.20;4.70;;;14.20;96.60;;;;;;5065511;28;20029;-70
2021/09/05 02:05:29;;;;;;;6.80;4.50;;;14.20;96.60;;;;;;5065189;28;20544;-71
2021/09/05 02:07:55;;;;;;;8.57;5.00;;;14.20;96.70;;;;;;5061954;28;20032;-70
2021/09/05 02:10:20;;;;;;;8.55;4.57;;;14.20;96.60;;;;;;5062888;28;20500;-70
2021/09/05 02:12:46;;;;;;;8.85;5.07;;;14.20;96.50;;;;;;5063578;28;20103;-71
2021/09/05 02:15:12;;;;;;;9.07;5.32;;;14.20;96.60;;;;;;5064144;28;20495;-70
2021/09/05 02:17:38;;;;;;;9.75;5.00;;;14.10;96.50;;;;;;5064108;28;20085;-71
2021/09/05 02:20:04;;;;;;;11.88;5.28;;;14.10;96.60;;;;;;5065153;28;20431;-70
2021/09/05 02:22:29;;;;;;;9.35;5.15;;;14.10;96.70;;;;;;5070636;28;20032;-70
2021/09/05 02:24:55;;;;;;;8.70;4.85;;;14.10;96.60;;;;;;5066686;28;20041;-70
2021/09/05 02:27:21;;;;;;;9.88;4.72;;;14.10;96.70;;;;;;5063221;28;20085;-70
2021/09/05 02:29:46;;;;;;;9.10;5.28;;;14.00;96.70;;;;;;5064824;28;20388;-71
2021/09/05 02:32:12;;;;;;;9.75;4.93;;;14.00;96.60;;;;;;5064711;28;20462;-71
2021/09/05 02:34:38;;;;;;;12.13;5.63;;;13.90;96.80;;;;;;5068059;28;20024;-70
2021/09/05 02:37:04;;;;;;;10.93;4.63;;;13.90;96.80;;;;;;5064876;28;20025;-70
2021/09/05 02:39:29;;;;;;;11.70;4.78;;;14.00;96.80;;;;;;5062312;28;20094;-70
2021/09/05 02:41:55;;;;;;;11.80;5.00;;;13.90;96.80;;;;;;5066407;28;20033;-71
2021/09/05 02:44:21;;;;;;;8.50;5.10;;;13.90;96.80;;;;;;5064224;28;20032;-71
2021/09/05 02:46:46;;;;;;;9.30;5.20;;;13.90;96.90;;;;;;5064465;28;20622;-70
2021/09/05 02:49:12;;;;;;;9.30;5.07;;;13.80;96.80;;;;;;5064272;28;20044;-70
2021/09/05 02:51:39;;;;;;;7.50;4.32;;;13.80;96.90;;;;;;5069964;28;20477;-70
2021/09/05 02:54:05;;;;;;;9.10;4.70;;;13.80;96.90;;;;;;5062691;28;20366;-71
2021/09/05 02:56:31;;;;;;;9.95;4.75;;;13.80;96.80;;;;;;5064861;28;20032;-71
2021/09/05 02:58:57;;;;;;;8.63;5.05;;;13.80;96.90;;;;;;5064546;28;20032;-70
2021/09/05 03:01:22;;;;;;;11.40;5.60;;;13.80;97.00;;;;;;5064779;28;20029;-71
2021/09/05 03:03:48;;;;;;;7.20;4.55;;;13.80;96.90;;;;;;5066973;28;20036;-71
2021/09/05 03:06:14;;;;;;;8.63;4.93;;;13.80;96.90;;;;;;5064407;28;20051;-71
2021/09/05 03:08:39;;;;;;;9.10;4.90;;;13.70;97.00;;;;;;5060812;28;20032;-71
2021/09/05 03:11:05;;;;;;;7.90;4.55;;;13.70;97.00;;;;;;5060270;28;20033;-71
2021/09/05 03:13:31;;;;;;;11.15;5.00;;;13.70;97.00;;;;;;5064343;28;20060;-71
2021/09/05 03:15:56;;;;;;;8.50;4.97;;;13.70;96.90;;;;;;5066329;28;20463;-70
2021/09/05 03:18:22;;;;;;;8.70;4.35;;;13.70;97.00;;;;;;5061568;28;20570;-71
2021/09/05 03:20:48;;;;;;;9.57;4.40;;;13.70;96.90;;;;;;5064705;28;20416;-71
2021/09/05 03:23:13;;;;;;;9.07;4.75;;;13.70;97.00;;;;;;5062383;28;20443;-71
2021/09/05 03:25:39;;;;;;;7.10;4.15;;;13.60;97.00;;;;;;5064466;28;20070;-70
2021/09/05 03:28:05;;;;;;;11.35;4.80;;;13.60;96.90;;;;;;5063479;28;20025;-70
2021/09/05 03:30:31;;;;;;;7.80;4.00;;;13.70;97.00;;;;;;5063494;28;20107;-70
2021/09/05 03:32:56;;;;;;;8.18;4.95;;;13.60;96.90;;;;;;5051707;28;20062;-70
2021/09/05 03:35:22;;;;;;;7.03;4.35;;;13.60;97.00;;;;;;5066115;28;20029;-71
2021/09/05 03:37:48;;;;;;;11.30;4.78;;;13.60;96.90;;;;;;5062974;28;20052;-71
2021/09/05 03:40:14;;;;;;;6.90;4.28;;;13.60;96.90;;;;;;5060432;28;20032;-70
2021/09/05 03:42:40;;;;;;;9.63;4.85;;;13.60;96.90;;;;;;5063395;28;20021;-70
2021/09/05 03:45:06;;;;;;;9.50;4.68;;;13.60;96.80;;;;;;5062195;28;20060;-71
2021/09/05 03:47:31;;;;;;;8.05;4.25;;;13.50;97.00;;;;;;5063317;28;20029;-71
2021/09/05 03:49:57;;;;;;;9.25;4.75;;;13.50;97.00;;;;;;5064379;28;20050;-71
2021/09/05 03:52:25;;;;;;;5.43;3.80;;;13.50;97.00;;;;;;5065971;28;20044;-71
2021/09/05 03:54:51;;;;;;;9.15;4.43;;;13.50;97.00;;;;;;5068480;28;20446;-70
2021/09/05 03:57:17;;;;;;;8.60;4.10;;;13.50;97.00;;;;;;5062245;28;20036;-70
2021/09/05 03:59:43;;;;;;;6.93;4.35;;;13.50;97.00;;;;;;5061815;28;20028;-71
2021/09/05 04:02:09;;;;;;;9.23;4.32;;;13.50;97.10;;;;;;5063063;28;20019;-71
2021/09/05 04:04:34;;;;;;;8.35;3.78;;;13.50;96.90;;;;;;5061481;28;20055;-71
2021/09/05 04:07:00;;;;;;;8.18;4.03;;;13.50;96.90;;;;;;5061735;28;20104;-70
2021/09/05 04:12:16;;;;;;;6.90;4.10;;;13.40;97.00;;;;;;5065953;28;20036;-70
2021/09/05 04:14:42;;;;;;;7.72;3.90;;;13.50;97.00;;;;;;5063523;28;20044;-71
2021/09/05 04:17:08;;;;;;;9.30;4.45;;;13.40;97.00;;;;;;5060981;28;20029;-71
2021/09/05 04:19:34;;;;;;;10.52;4.63;;;13.40;97.00;;;;;;5063829;28;20029;-71
2021/09/05 04:22:00;;;;;;;9.38;4.25;;;13.40;97.00;;;;;;5062444;28;20045;-71
2021/09/05 04:24:25;;;;;;;6.63;3.92;;;13.40;96.90;;;;;;5066403;28;20036;-71
2021/09/05 04:26:51;;;;;;;7.68;4.10;;;13.30;97.00;;;;;;5060346;28;20481;-71
2021/09/05 04:29:17;;;;;;;7.35;3.63;;;13.30;97.00;;;;;;5064359;28;20040;-70
2021/09/05 04:31:42;;;;;;;6.40;3.85;;;13.30;97.00;;;;;;5061209;28;20057;-70
2021/09/05 04:34:08;;;;;;;7.72;4.20;;;13.30;97.00;;;;;;5063185;28;20391;-70
2021/09/05 04:36:34;;;;;;;6.50;3.78;;;13.30;97.10;;;;;;5060610;28;20029;-70
2021/09/05 04:39:00;;;;;;;7.75;4.07;;;13.20;96.90;;;;;;5063930;28;20028;-71
2021/09/05 04:41:26;;;;;;;8.88;4.10;;;13.20;97.00;;;;;;5065246;28;20036;-71
2021/09/05 04:43:52;;;;;;;6.60;3.60;;;13.20;97.10;;;;;;5062157;28;20036;-71
2021/09/05 04:46:17;;;;;;;6.47;3.33;;;13.20;97.00;;;;;;5066016;28;20032;-70
2021/09/05 04:48:43;;;;;;;7.78;4.30;;;13.20;97.00;;;;;;5060877;28;20036;-71
2021/09/05 04:51:09;;;;;;;6.20;3.30;;;13.20;97.00;;;;;;5044276;28;20066;-70
2021/09/05 04:53:34;;;;;;;6.95;3.85;;;13.20;97.00;;;;;;5057632;28;20028;-71
2021/09/05 04:56:00;;;;;;;7.80;3.85;;;13.20;96.90;;;;;;5060002;28;20490;-71
2021/09/05 04:58:26;;;;;;;6.75;3.53;;;13.20;96.80;;;;;;5058832;28;20024;-70
2021/09/05 05:00:51;;;;;;;6.32;3.10;;;13.20;97.00;;;;;;5059631;28;20116;-71
2021/09/05 05:03:17;;;;;;;7.13;3.88;;;13.20;96.90;;;;;;5058752;28;20131;-71
2021/09/05 05:05:43;;;;;;;5.90;3.33;;;13.20;96.90;;;;;;5058059;28;20043;-71
2021/09/05 05:08:09;;;;;;;5.63;3.40;;;13.20;96.90;;;;;;5055139;28;20071;-71
2021/09/05 05:10:35;;;;;;;6.15;3.60;;;13.20;96.80;;;;;;5061358;28;20025;-70
2021/09/05 05:13:01;;;;;;;7.15;3.65;;;13.30;96.80;;;;;;5062358;28;20037;-71
2021/09/05 05:15:27;;;;;;;6.03;3.30;;;13.30;96.80;;;;;;5061405;28;20035;-72
2021/09/05 05:17:54;;;;;;;6.78;3.65;;;13.30;96.80;;;;;;5060702;28;20041;-72
2021/09/05 05:20:20;;;;;;;7.07;3.95;;;13.30;96.70;;;;;;5075416;28;20028;-70
2021/09/05 05:22:46;;;;;;;6.25;3.22;;;13.30;96.70;;;;;;5057802;28;20080;-70
2021/09/05 05:25:12;;;;;;;9.73;3.92;;;13.30;96.60;;;;;;5062239;28;20033;-70
2021/09/05 05:27:39;;;;;;;7.15;3.55;;;13.30;96.60;;;;;;5057366;28;20090;-71
2021/09/05 05:30:05;;;;;;;6.75;3.03;;;13.30;96.60;;;;;;5059221;28;20035;-71
2021/09/05 05:32:32;;;;;;;10.18;3.78;;;13.30;96.60;;;;;;5061031;28;20032;-70
2021/09/05 05:34:57;;;;;;;6.80;3.60;;;13.40;96.50;;;;;;5059667;28;20500;-70
2021/09/05 05:37:24;;;;;;;6.00;3.33;;;13.40;96.50;;;;;;5061074;28;20036;-70
2021/09/05 05:39:49;;;;;;;6.88;3.35;;;13.40;96.50;;;;;;5061622;28;20032;-70
2021/09/05 05:42:15;;;;;;;6.88;3.70;;;13.40;96.40;;;;;;5062242;28;20662;-70
2021/09/05 05:44:41;;;;;;;6.75;3.58;;;13.40;96.50;;;;;;5058987;28;20099;-70
2021/09/05 05:47:07;;;;;;;5.05;3.20;;;13.50;96.40;;;;;;5057327;28;20027;-70
2021/09/05 05:49:35;;;;;;;5.78;3.00;;;13.50;96.40;;;;;;5061343;28;20066;-70
2021/09/05 05:52:01;;;;;;;7.50;3.47;;;13.50;96.30;;;;;;5061463;28;20025;-71
2021/09/05 05:54:26;;;;;;;6.13;3.33;;;13.60;96.40;;;;;;5059392;28;20028;-70
2021/09/05 05:56:52;;;;;;;5.53;2.92;;;13.60;96.40;;;;;;5060039;28;20686;-70
2021/09/05 05:59:18;;;;;;;6.63;3.15;;;13.60;96.30;;;;;;5060020;28;20060;-70
2021/09/05 06:01:43;;;;;;;4.80;3.00;;;13.60;96.20;;;;;;5060754;28;20025;-70
2021/09/05 06:04:10;;;;;;;7.38;3.20;;;13.60;96.20;;;;;;5060962;28;20538;-71
2021/09/05 06:06:36;;;;;;;5.75;3.42;;;13.60;96.20;;;;;;5062117;28;20047;-69
2021/09/05 06:09:02;;;;;;;6.00;3.33;;;13.70;96.20;;;;;;5065365;28;20063;-71
2021/09/05 06:11:28;;;;;;;5.18;3.17;;;13.70;96.20;;;;;;5060680;28;20122;-71
2021/09/05 06:13:54;;;;;;;9.65;3.40;;;13.70;96.10;;;;;;5062505;28;20079;-71
2021/09/05 06:16:20;;;;;;;6.93;3.22;;;13.80;96.10;;;;;;5058631;28;20552;-70
2021/09/05 06:18:46;;;;;;;4.20;2.80;;;13.70;96.00;;;;;;5059661;28;20025;-70
2021/09/05 06:21:12;;;;;;;7.25;4.05;;;13.80;96.00;;;;;;5060700;28;20146;-70
2021/09/05 06:23:38;;;;;;;5.07;3.08;;;13.80;95.80;;;;;;5059101;28;20090;-71
2021/09/05 06:26:03;;;;;;;4.60;2.60;;;13.80;95.80;;;;;;5060779;28;20033;-70
2021/09/05 06:28:29;;;;;;;6.35;3.08;;;13.80;95.80;;;;;;5061190;28;20036;-71
2021/09/05 06:30:55;;;;;;;5.72;2.95;;;13.80;95.70;;;;;;5060659;28;20388;-70
2021/09/05 06:33:21;;;;;;;5.72;2.88;;;13.80;95.70;;;;;;5058875;28;20037;-71
2021/09/05 06:35:46;;;;;;;5.00;3.30;;;13.80;95.50;;;;;;5061383;28;20369;-70
2021/09/05 06:38:12;;;;;;;7.95;2.70;;;13.80;95.50;;;;;;5060403;28;20496;-71
2021/09/05 06:40:38;;;;;;;5.38;3.03;;;13.90;95.50;;;;;;5059512;28;20035;-71
2021/09/05 06:43:04;;;;;;;5.95;2.83;;;13.90;95.40;;;;;;5061433;28;20040;-71
2021/09/05 06:45:30;;;;;;;6.78;2.83;;;14.00;95.40;;;;;;5062690;28;20912;-71
2021/09/05 06:47:56;;;;;;;6.30;3.08;;;14.00;95.30;;;;;;5063055;28;20028;-70
2021/09/05 06:50:22;;;;;;;4.78;2.65;;;14.10;95.20;;;;;;5065205;28;20024;-70
2021/09/05 06:52:47;;;;;;;8.30;3.42;;;14.10;95.00;;;;;;5062793;28;20424;-69
2021/09/05 06:55:13;;;;;;;5.22;3.08;;;14.10;94.90;;;;;;5083899;28;20021;-71
2021/09/05 06:57:39;;;;;;;4.93;2.60;;;14.10;95.00;;;;;;5064345;28;20033;-71
2021/09/05 07:00:05;;;;;;;5.93;2.70;;;14.10;94.80;;;;;;5065324;28;20039;-71
2021/09/05 07:02:31;;;;;;;5.55;2.90;;;14.20;94.90;;;;;;5065439;28;20031;-71
2021/09/05 07:04:56;;;;;;;5.75;2.78;;;14.20;94.80;;;;;;5086252;28;20024;-71
2021/09/05 07:07:22;;;;;;;6.07;3.17;;;14.20;94.80;;;;;;5061427;28;20138;-70
2021/09/05 07:09:48;;;;;;;5.00;2.63;;;14.30;94.50;;;;;;5061936;28;20035;-70
2021/09/05 07:12:14;;;;;;;7.30;3.03;;;14.30;94.30;;;;;;5065956;28;20028;-70
2021/09/05 07:14:39;;;;;;;4.63;2.78;;;14.30;94.30;;;;;;5064695;28;20037;-70
2021/09/05 07:17:05;;;;;;;5.22;2.72;;;14.40;94.20;;;;;;5062197;28;20118;-71
2021/09/05 07:19:31;;;;;;;6.13;3.58;;;14.40;94.10;;;;;;5063441;28;20028;-70
2021/09/05 07:21:57;;;;;;;4.93;2.65;;;14.40;94.00;;;;;;5065628;28;20024;-70
2021/09/05 07:24:22;;;;;;;5.90;3.03;;;14.50;94.10;;;;;;5063979;28;20033;-71
2021/09/05 07:26:48;;;;;;;5.05;2.42;;;14.50;94.00;;;;;;5066316;28;20029;-70
2021/09/05 07:29:14;;;;;;;6.28;2.90;;;14.50;94.00;;;;;;5064213;28;20056;-70
2021/09/05 07:31:39;;;;;;;7.15;3.50;;;14.60;94.00;;;;;;5063064;28;20107;-70
2021/09/05 07:34:05;;;;;;;5.60;3.10;;;14.60;93.80;;;;;;5066130;28;20028;-70
2021/09/05 07:36:33;;;;;;;4.22;2.63;;;14.60;93.70;;;;;;5062919;28;20379;-70
2021/09/05 07:38:59;;;;;;;4.47;2.60;;;14.60;93.80;;;;;;5064071;28;20024;-70
2021/09/05 07:41:24;;;;;;;5.65;3.20;;;14.70;93.80;;;;;;5065811;28;20012;-70
2021/09/05 07:43:50;;;;;;;5.85;2.45;;;14.70;93.60;;;;;;5065539;28;20411;-70
2021/09/05 07:46:16;;;;;;;5.82;2.63;;;14.70;93.50;;;;;;5064442;28;20025;-70
2021/09/05 07:48:42;;;;;;;4.50;2.83;;;14.80;93.50;;;;;;5064161;28;20028;-71
2021/09/05 07:51:07;;;;;;;4.68;2.85;;;14.80;93.50;;;;;;5082884;28;20502;-70
2021/09/05 07:53:33;;;;;;;4.63;2.55;;;14.90;93.40;;;;;;5060213;28;20099;-71
2021/09/05 07:55:59;;;;;;;4.43;2.90;;;14.90;93.40;;;;;;5068710;28;20102;-70
2021/09/05 07:58:27;;;;;;;3.15;2.08;;;15.00;93.30;;;;;;5064080;28;20051;-69
2021/09/05 08:00:55;;;;;;;3.85;2.35;;;14.90;93.20;;;;;;5066305;28;20035;-70
2021/09/05 08:03:21;;;;;;;4.13;2.20;;;15.00;92.90;;;;;;5050097;28;20024;-71
2021/09/05 08:05:46;;;;;;;8.48;2.75;;;15.00;92.90;;;;;;5063251;28;20032;-70
2021/09/05 08:08:12;;;;;;;6.13;2.60;;;15.10;92.70;;;;;;5060566;28;20056;-71
2021/09/05 08:10:38;;;;;;;5.38;2.88;;;15.00;92.60;;;;;;5063344;28;20078;-70
2021/09/05 08:13:04;;;;;;;4.90;2.60;;;15.00;92.70;;;;;;5063084;28;20075;-71
2021/09/05 08:15:30;;;;;;;5.72;2.83;;;15.10;92.80;;;;;;5063907;28;20036;-70
2021/09/05 08:17:56;;;;;;;4.70;2.50;;;15.10;92.50;;;;;;5061763;28;20027;-71
2021/09/05 08:20:22;;;;;;;6.43;3.00;;;15.20;92.50;;;;;;5061769;28;20151;-70
2021/09/05 08:22:48;;;;;;;8.18;3.60;;;15.20;92.30;;;;;;5061148;28;20032;-69
2021/09/05 08:25:15;;;;;;;4.65;2.53;;;15.20;92.10;;;;;;5064896;28;20131;-70
2021/09/05 08:27:41;;;;;;;5.70;2.85;;;15.20;92.10;;;;;;5064677;28;20033;-70
2021/09/05 08:30:07;;;;;;;6.60;2.90;;;15.30;92.00;;;;;;5059831;28;20466;-72
2021/09/05 08:32:33;;;;;;;4.30;2.80;;;15.30;91.90;;;;;;5062105;28;20039;-70
2021/09/05 08:34:58;;;;;;;5.53;2.47;;;15.30;92.00;;;;;;5059441;28;20025;-71
2021/09/05 08:37:24;;;;;;;5.28;3.50;;;15.40;92.00;;;;;;5061279;28;20526;-70
2021/09/05 08:39:50;;;;;;;4.75;2.80;;;15.40;92.00;;;;;;5060431;28;20523;-71
2021/09/05 08:42:17;;;;;;;6.72;2.88;;;15.40;91.90;;;;;;5061782;28;20046;-70
2021/09/05 08:44:43;;;;;;;4.32;2.53;;;15.40;91.90;;;;;;5060284;28;20087;-69
2021/09/05 08:47:09;;;;;;;5.18;2.88;;;15.50;91.80;;;;;;5060669;28;20033;-75
2021/09/05 08:49:36;;;;;;;4.38;2.60;;;15.50;91.80;;;;;;5062892;28;20035;-80
2021/09/05 08:52:04;;;;;;;6.60;3.22;;;15.60;91.70;;;;;;5052259;28;20064;-69
2021/09/05 08:54:30;;;;;;;6.28;3.03;;;15.60;91.70;;;;;;5062010;28;20039;-69
2021/09/05 08:56:56;;;;;;;5.55;2.75;;;15.70;91.70;;;;;;5064197;28;20028;-70
2021/09/05 08:59:21;;;;;;;5.47;3.03;;;15.80;91.50;;;;;;5066305;28;20028;-69
2021/09/05 09:01:55;;;;;;;5.75;3.05;;;15.80;91.30;;;;;;5063989;28;20024;-68
2021/09/05 09:04:21;;;;;;;4.72;2.78;;;15.80;91.40;;;;;;5061120;28;20514;-68
2021/09/05 09:06:47;;;;;;;4.00;2.55;;;15.90;91.40;;;;;;5059700;28;20029;-69
2021/09/05 09:09:13;;;;;;;4.35;2.90;;;15.90;91.40;;;;;;5060446;28;20040;-69
2021/09/05 09:11:45;;;;;;;4.65;2.70;;;16.00;91.10;;;;;;5059952;28;20032;-69
2021/09/05 09:14:11;;;;;;;6.05;2.95;;;15.90;91.00;;;;;;5059809;28;20029;-69
2021/09/05 09:16:37;;;;;;;6.18;3.50;;;16.00;90.90;;;;;;5058886;28;20033;-69
2021/09/05 09:19:04;;;;;;;6.40;2.70;;;16.00;91.10;;;;;;5060427;28;20033;-69
2021/09/05 09:21:37;;;;;;;4.25;2.65;;;16.00;90.90;;;;;;5061790;28;20028;-68
2021/09/05 09:24:13;;;;;;;5.25;2.72;;;16.20;91.00;;;;;;5059332;28;20123;-70
2021/09/05 09:26:39;;;;;;;5.88;2.95;;;16.30;90.90;;;;;;5061767;28;20048;-71
2021/09/05 09:29:15;;;;;;;4.93;2.55;;;16.30;90.90;;;;;;5058434;28;20033;-70
2021/09/05 09:31:40;;;;;;;5.47;3.00;;;16.40;90.80;;;;;;5060598;28;20032;-70
2021/09/05 09:34:06;;;;;;;4.57;3.00;;;16.40;90.60;;;;;;5059555;28;20065;-73
2021/09/05 09:36:32;;;;;;;5.85;3.00;;;16.40;90.40;;;;;;5056803;28;20074;-68
2021/09/05 09:39:05;;;;;;;9.43;2.80;;;16.40;90.20;;;;;;5075839;28;20029;-68
2021/09/05 09:41:35;;;;;;;4.90;2.90;;;16.50;90.40;;;;;;5064729;28;20095;-68
2021/09/05 09:44:03;;;;;;;4.90;2.90;;;16.50;90.50;;;;;;5062446;28;20031;-69
2021/09/05 09:46:31;;;;;;;5.68;2.72;;;16.70;90.90;;;;;;5064452;28;20518;-68
2021/09/05 09:49:03;;;;;;;7.97;3.17;;;16.90;91.20;;;;;;5059970;28;20047;-68
2021/09/05 09:51:30;;;;;;;7.18;2.65;;;17.00;91.00;;;;;;5063389;28;20036;-68
2021/09/05 09:53:57;;;;;;;4.75;3.05;;;17.20;91.00;;;;;;5059368;28;20039;-69
2021/09/05 09:56:24;;;;;;;8.10;3.80;;;17.30;90.10;;;;;;5060444;28;20028;-68
2021/09/05 09:58:52;;;;;;;7.47;3.25;;;17.30;90.00;;;;;;5057561;28;20103;-69
2021/09/05 10:01:20;;;;;;;5.70;3.03;;;17.40;89.60;;;;;;5057128;28;20028;-68
2021/09/05 10:03:51;;;;;;;5.00;2.53;;;17.40;89.60;;;;;;5059622;28;20043;-68
2021/09/05 10:06:18;;;;;;;4.35;2.88;;;17.50;90.00;;;;;;5060177;28;20402;-68
2021/09/05 10:08:45;;;;;;;6.72;3.20;;;17.60;90.00;;;;;;5061307;28;20041;-66
2021/09/05 10:11:15;;;;;;;7.90;3.35;;;17.70;88.70;;;;;;5058602;28;20028;-68
2021/09/05 10:13:43;;;;;;;6.15;3.05;;;17.70;88.80;;;;;;5062747;28;20037;-68
2021/09/05 10:16:12;;;;;;;5.18;3.10;;;17.70;88.00;;;;;;5059885;28;20039;-68
2021/09/05 10:18:45;;;;;;;4.68;3.05;;;17.70;88.50;;;;;;5061508;28;20032;-68
2021/09/05 10:21:14;;;;;;;5.03;2.88;;;17.80;88.40;;;;;;5075812;28;20021;-68
2021/09/05 10:23:50;;;;;;;5.50;3.35;;;17.90;88.80;;;;;;5066579;28;20036;-68
2021/09/05 10:26:16;;;;;;;6.03;3.22;;;17.90;88.50;;;;;;5055601;28;20046;-68
2021/09/05 10:28:44;;;;;;;4.97;2.63;;;18.00;87.70;;;;;;5061037;28;20036;-69
2021/09/05 10:31:12;;;;;;;4.72;3.10;;;18.20;88.10;;;;;;5063041;28;20033;-69
2021/09/05 10:33:42;;;;;;;7.82;3.53;;;18.20;88.20;;;;;;5064424;28;20036;-67
2021/09/05 10:36:09;;;;;;;6.10;3.53;;;18.30;87.70;;;;;;5066361;28;20039;-68
2021/09/05 10:38:38;;;;;;;6.97;3.55;;;18.30;86.60;;;;;;5063167;28;20021;-68
2021/09/05 10:41:20;;;;;;;5.70;3.55;;;18.30;86.70;;;;;;5064996;28;20222;-72
2021/09/05 10:43:49;;;;;;;8.63;3.78;;;18.30;86.60;;;;;;5061489;28;20576;-70
2021/09/05 10:46:29;;;;;;;7.90;3.50;;;18.30;87.20;;;;;;5063105;28;20753;-68
2021/09/05 10:49:00;;;;;;;5.53;3.70;;;18.40;87.50;;;;;;5063049;28;20128;-68
2021/09/05 10:51:28;;;;;;;10.40;3.90;;;18.40;87.90;;;;;;5061185;28;20101;-68
2021/09/05 10:53:54;;;;;;;7.63;3.55;;;18.50;85.40;;;;;;5064727;28;20033;-69
2021/09/05 10:56:27;;;;;;;6.38;3.63;;;18.50;86.50;;;;;;5059728;28;20053;-68
2021/09/05 10:59:02;;;;;;;7.63;4.10;;;18.60;86.40;;;;;;5063807;28;20024;-69
2021/09/05 11:01:29;;;;;;;7.97;3.70;;;18.50;86.10;;;;;;5056599;28;20046;-68
2021/09/05 11:04:11;;;;;;;7.20;4.25;;;18.60;86.20;;;;;;5066870;28;20084;-68
2021/09/05 11:06:50;;;;;;;;;;;18.70;87.50;;;;;;5063868;28;20162;-68
2021/09/05 11:09:22;;;;;;;5.13;2.85;;;19.10;87.60;;;;;;5063424;28;19916;-70
2021/09/05 11:12:03;;;;;;;6.30;3.10;;;19.80;88.30;;;;;;5063173;28;20025;-68
2021/09/05 11:14:35;;;;;;;;;;;21.50;81.40;;;;;;5061076;28;20029;-68
2021/09/05 11:17:19;;;;;;;6.80;3.63;;;23.90;72.80;;;;;;5063811;28;20271;-69
2021/09/05 11:20:01;;;;;;;4.63;3.28;;;27.30;61.80;;;;;;5065175;28;20028;-70
2021/09/05 11:22:32;;;;;;;6.35;2.80;;;30.10;54.30;;;;;;5046616;28;20039;-70
2021/09/05 11:25:31;;;;;;;4.97;3.40;;;32.10;48.90;;;;;;5064264;28;20025;-70
2021/09/05 11:28:10;;;;;;;4.55;3.40;;;34.20;42.80;;;;;;5068426;28;20033;-69
2021/09/05 11:30:42;;;;;;;6.05;3.70;;;35.40;40.00;;;;;;5066335;28;20039;-67
2021/09/05 11:33:12;;;;;;;5.07;3.60;;;35.40;37.60;;;;;;5063221;28;20059;-69
2021/09/05 11:35:46;;;;;;;19.50;4.72;;;35.80;36.30;;;;;;5062767;28;20036;-72
2021/09/05 11:38:14;;;;;;;18.27;4.68;;;35.40;36.20;;;;;;5065081;28;20483;-75
2021/09/05 11:40:42;;;;;;;6.85;3.92;;;34.40;37.80;;;;;;5066292;28;20063;-74
2021/09/05 11:43:08;;;;;;;4.63;3.55;;;33.70;36.70;;;;;;5046380;28;20064;-74
2021/09/05 11:45:38;;;;;;;5.05;3.85;;;33.80;37.80;;;;;;5064638;28;20056;-73
2021/09/05 11:48:06;;;;;;;4.93;4.00;;;33.60;38.60;;;;;;5063173;28;20032;-71
2021/09/05 11:50:37;;;;;;;4.93;3.60;;;33.60;38.60;;;;;;5062293;28;20033;-72
2021/09/05 11:53:04;;;;;;;4.93;4.05;;;33.30;39.50;;;;;;5060132;28;20060;-71
2021/09/05 11:55:30;;;;;;;6.10;3.75;;;31.70;41.10;;;;;;5061944;28;20036;-72
2021/09/05 11:58:01;;;;;;;5.50;3.63;;;30.50;40.50;;;;;;5059154;28;20021;-71
2021/09/05 12:00:29;;;;;;;5.05;3.53;;;29.20;43.90;;;;;;5063696;28;20024;-69
2021/09/05 12:02:56;;;;;;;6.45;4.28;;;28.60;45.70;;;;;;5063026;28;20029;-71
2021/09/05 12:05:22;;;;;;;4.35;3.17;;;28.20;47.40;;;;;;5062447;28;20060;-70
2021/09/05 12:07:49;;;;;;;6.30;4.00;;;27.80;48.10;;;;;;5061484;28;20032;-70
2021/09/05 12:10:23;;;;;;;5.57;4.03;;;27.40;49.10;;;;;;5063708;28;20099;-72
2021/09/05 12:13:09;;;;;;;6.97;4.20;;;27.00;49.90;;;;;;5059837;28;20099;-70
2021/09/05 12:15:38;;;;;;;7.72;3.85;;;26.80;50.60;;;;;;5061125;28;20028;-72
2021/09/05 12:18:22;;;;;;;4.95;3.67;;;26.80;50.80;;;;;;5061581;28;20032;-71
2021/09/05 12:20:53;;;;;;;8.60;4.40;;;26.70;50.10;;;;;;5061995;28;20150;-70
2021/09/05 12:23:25;;;;;;;;;;;26.90;49.90;;;;;;5065090;28;20053;-70
2021/09/05 12:25:53;;;;;;;4.55;3.10;;;27.20;49.20;;;;;;5064272;28;19909;-70
2021/09/05 12:28:25;;;;;;;5.50;3.20;;;27.40;47.80;;;;;;5062579;28;20040;-71
2021/09/05 12:31:03;;;;;;;4.93;3.30;;;27.80;48.10;;;;;;5063140;28;20029;-69
2021/09/05 12:33:29;;;;;;;6.00;3.33;;;28.20;45.90;;;;;;5061404;28;20032;-70
2021/09/05 12:36:14;;;;;;;6.43;3.53;;;28.80;45.50;;;;;;5060927;28;20024;-70
2021/09/05 12:38:51;;;;;;;5.43;3.50;;;29.20;45.90;;;;;;5059269;28;21041;-72
2021/09/05 12:41:17;;;;;;;4.82;3.22;;;29.60;45.10;;;;;;5063211;28;20082;-69
2021/09/05 12:43:44;;;;;;;5.22;3.55;;;29.70;44.30;;;;;;5062705;28;20040;-70
2021/09/05 12:46:11;;;;;;;4.70;2.97;;;30.10;42.60;;;;;;5063058;28;20036;-70
2021/09/05 12:48:40;;;;;;;5.03;3.28;;;30.50;41.80;;;;;;5061562;28;20025;-70